sensor_id;sensor_type;location;lat;lon;timestamp;temperature;humidity
30288;DHT22;17103;48.316;11.558;2023-10-19T00:00:13;16.80;40.40
30288;DHT22;17103;48.316;11.558;2023-10-19T00:02:46;16.80;40.40
30288;DHT22;17103;48.316;11.558;2023-10-19T00:05:11;16.80;40.40
30288;DHT22;17103;48.316;11.558;2023-10-19T00:07:39;16.80;40.40
30288;DHT22;17103;48.316;11.558;2023-10-19T00:10:07;17.20;40.80
30288;DHT22;17103;48.316;11.558;2023-10-19T00:12:32;16.80;40.40
30288;DHT22;17103;48.316;11.558;2023-10-19T00:14:58;16.80;40.40
30288;DHT22;17103;48.316;11.558;2023-10-19T00:17:24;16.80;40.40
30288;DHT22;17103;48.316;11.558;2023-10-19T00:19:52;16.80;40.50
30288;DHT22;17103;48.316;11.558;2023-10-19T00:22:44;16.80;40.50
30288;DHT22;17103;48.316;11.558;2023-10-19T00:25:09;16.80;40.50
30288;DHT22;17103;48.316;11.558;2023-10-19T00:27:44;16.80;40.50
30288;DHT22;17103;48.316;11.558;2023-10-19T00:30:14;16.80;40.50
30288;DHT22;17103;48.316;11.558;2023-10-19T00:32:44;16.80;40.50
30288;DHT22;17103;48.316;11.558;2023-10-19T00:35:11;16.80;40.50
30288;DHT22;17103;48.316;11.558;2023-10-19T00:37:53;16.80;41.00
30288;DHT22;17103;48.316;11.558;2023-10-19T00:40:21;16.80;40.60
30288;DHT22;17103;48.316;11.558;2023-10-19T00:43:03;16.80;40.50
30288;DHT22;17103;48.316;11.558;2023-10-19T00:45:34;16.80;40.60
30288;DHT22;17103;48.316;11.558;2023-10-19T00:48:06;16.80;40.60
30288;DHT22;17103;48.316;11.558;2023-10-19T00:50:34;16.80;40.60
30288;DHT22;17103;48.316;11.558;2023-10-19T00:53:01;16.80;40.60
30288;DHT22;17103;48.316;11.558;2023-10-19T00:55:29;16.80;40.60
30288;DHT22;17103;48.316;11.558;2023-10-19T00:57:55;16.70;40.50
30288;DHT22;17103;48.316;11.558;2023-10-19T01:00:22;16.70;40.60
30288;DHT22;17103;48.316;11.558;2023-10-19T01:02:59;16.70;40.70
30288;DHT22;17103;48.316;11.558;2023-10-19T01:05:28;16.70;40.70
30288;DHT22;17103;48.316;11.558;2023-10-19T01:08:01;16.70;40.60
30288;DHT22;17103;48.316;11.558;2023-10-19T01:10:28;16.70;40.60
30288;DHT22;17103;48.316;11.558;2023-10-19T01:12:55;16.70;40.60
30288;DHT22;17103;48.316;11.558;2023-10-19T01:15:21;16.90;40.90
30288;DHT22;17103;48.316;11.558;2023-10-19T01:17:54;16.60;41.30
30288;DHT22;17103;48.316;11.558;2023-10-19T01:22:57;16.60;40.80
30288;DHT22;17103;48.316;11.558;2023-10-19T01:25:32;16.60;40.80
30288;DHT22;17103;48.316;11.558;2023-10-19T01:28:07;16.60;40.80
30288;DHT22;17103;48.316;11.558;2023-10-19T01:30:33;16.60;40.80
30288;DHT22;17103;48.316;11.558;2023-10-19T01:32:59;16.70;41.10
30288;DHT22;17103;48.316;11.558;2023-10-19T01:35:24;16.60;40.90
30288;DHT22;17103;48.316;11.558;2023-10-19T01:37:50;16.60;40.80
30288;DHT22;17103;48.316;11.558;2023-10-19T01:40:15;16.60;40.80
30288;DHT22;17103;48.316;11.558;2023-10-19T01:42:46;16.60;40.80
30288;DHT22;17103;48.316;11.558;2023-10-19T01:45:12;16.60;40.80
30288;DHT22;17103;48.316;11.558;2023-10-19T01:47:38;16.60;40.80
30288;DHT22;17103;48.316;11.558;2023-10-19T01:50:06;16.60;40.90
30288;DHT22;17103;48.316;11.558;2023-10-19T01:52:31;16.60;40.80
30288;DHT22;17103;48.316;11.558;2023-10-19T01:54:58;16.60;40.80
30288;DHT22;17103;48.316;11.558;2023-10-19T01:57:33;16.60;40.80
30288;DHT22;17103;48.316;11.558;2023-10-19T02:00:00;16.60;40.90
30288;DHT22;17103;48.316;11.558;2023-10-19T02:02:35;16.60;40.90
30288;DHT22;17103;48.316;11.558;2023-10-19T02:05:00;16.60;40.90
30288;DHT22;17103;48.316;11.558;2023-10-19T02:07:29;16.60;41.00
30288;DHT22;17103;48.316;11.558;2023-10-19T02:09:55;16.60;41.20
30288;DHT22;17103;48.316;11.558;2023-10-19T02:12:20;16.50;40.90
30288;DHT22;17103;48.316;11.558;2023-10-19T02:14:47;16.50;41.40
30288;DHT22;17103;48.316;11.558;2023-10-19T02:17:12;16.40;40.80
30288;DHT22;17103;48.316;11.558;2023-10-19T02:19:40;16.50;41.00
30288;DHT22;17103;48.316;11.558;2023-10-19T02:22:05;16.50;41.00
30288;DHT22;17103;48.316;11.558;2023-10-19T02:24:37;16.50;41.10
30288;DHT22;17103;48.316;11.558;2023-10-19T02:27:04;16.50;41.30
30288;DHT22;17103;48.316;11.558;2023-10-19T02:29:30;16.50;41.20
30288;DHT22;17103;48.316;11.558;2023-10-19T02:31:56;16.50;41.20
30288;DHT22;17103;48.316;11.558;2023-10-19T02:34:22;16.50;41.20
30288;DHT22;17103;48.316;11.558;2023-10-19T02:36:48;16.50;41.20
30288;DHT22;17103;48.316;11.558;2023-10-19T02:39:14;16.50;41.70
30288;DHT22;17103;48.316;11.558;2023-10-19T02:41:40;16.80;41.40
30288;DHT22;17103;48.316;11.558;2023-10-19T02:44:08;16.50;41.10
30288;DHT22;17103;48.316;11.558;2023-10-19T02:49:25;16.50;41.10
30288;DHT22;17103;48.316;11.558;2023-10-19T02:51:52;16.50;41.10
30288;DHT22;17103;48.316;11.558;2023-10-19T02:54:20;16.50;41.20
30288;DHT22;17103;48.316;11.558;2023-10-19T02:56:46;16.50;41.30
30288;DHT22;17103;48.316;11.558;2023-10-19T02:59:15;16.50;41.30
30288;DHT22;17103;48.316;11.558;2023-10-19T03:01:50;16.50;41.20
30288;DHT22;17103;48.316;11.558;2023-10-19T03:04:17;16.50;41.20
30288;DHT22;17103;48.316;11.558;2023-10-19T03:06:43;16.50;41.30
30288;DHT22;17103;48.316;11.558;2023-10-19T03:09:09;16.50;41.40
30288;DHT22;17103;48.316;11.558;2023-10-19T03:11:47;16.50;41.20
30288;DHT22;17103;48.316;11.558;2023-10-19T03:14:17;16.50;41.20
30288;DHT22;17103;48.316;11.558;2023-10-19T03:16:43;16.50;41.30
30288;DHT22;17103;48.316;11.558;2023-10-19T03:19:09;16.50;41.40
30288;DHT22;17103;48.316;11.558;2023-10-19T03:21:35;16.50;41.40
30288;DHT22;17103;48.316;11.558;2023-10-19T03:24:14;16.50;41.40
30288;DHT22;17103;48.316;11.558;2023-10-19T03:27:01;16.40;41.40
30288;DHT22;17103;48.316;11.558;2023-10-19T03:29:27;16.40;41.40
30288;DHT22;17103;48.316;11.558;2023-10-19T03:32:05;16.40;41.40
30288;DHT22;17103;48.316;11.558;2023-10-19T03:34:34;16.40;41.40
30288;DHT22;17103;48.316;11.558;2023-10-19T03:36:59;16.40;41.40
30288;DHT22;17103;48.316;11.558;2023-10-19T03:39:32;16.40;41.40
30288;DHT22;17103;48.316;11.558;2023-10-19T03:41:59;16.90;41.80
30288;DHT22;17103;48.316;11.558;2023-10-19T03:44:24;16.40;41.40
30288;DHT22;17103;48.316;11.558;2023-10-19T03:46:53;16.40;41.40
30288;DHT22;17103;48.316;11.558;2023-10-19T03:49:20;16.40;41.40
30288;DHT22;17103;48.316;11.558;2023-10-19T03:51:46;16.40;41.40
30288;DHT22;17103;48.316;11.558;2023-10-19T03:54:26;16.40;41.50
30288;DHT22;17103;48.316;11.558;2023-10-19T03:56:52;16.40;41.10
30288;DHT22;17103;48.316;11.558;2023-10-19T03:59:19;16.40;41.20
30288;DHT22;17103;48.316;11.558;2023-10-19T04:01:48;16.40;41.20
30288;DHT22;17103;48.316;11.558;2023-10-19T04:04:14;16.30;41.20
30288;DHT22;17103;48.316;11.558;2023-10-19T04:06:41;16.30;41.30
30288;DHT22;17103;48.316;11.558;2023-10-19T04:09:14;16.30;41.60
30288;DHT22;17103;48.316;11.558;2023-10-19T04:11:42;16.20;41.40
30288;DHT22;17103;48.316;11.558;2023-10-19T04:14:15;16.20;41.70
30288;DHT22;17103;48.316;11.558;2023-10-19T04:16:43;16.20;41.80
30288;DHT22;17103;48.316;11.558;2023-10-19T04:19:09;16.20;41.50
30288;DHT22;17103;48.316;11.558;2023-10-19T04:21:35;16.10;41.40
30288;DHT22;17103;48.316;11.558;2023-10-19T04:24:07;16.00;41.40
30288;DHT22;17103;48.316;11.558;2023-10-19T04:26:34;16.10;41.70
30288;DHT22;17103;48.316;11.558;2023-10-19T04:29:03;16.00;41.70
30288;DHT22;17103;48.316;11.558;2023-10-19T04:31:36;16.00;41.70
30288;DHT22;17103;48.316;11.558;2023-10-19T04:34:03;16.10;41.70
30288;DHT22;17103;48.316;11.558;2023-10-19T04:36:33;16.00;41.50
30288;DHT22;17103;48.316;11.558;2023-10-19T04:38:59;16.00;41.30
30288;DHT22;17103;48.316;11.558;2023-10-19T04:41:25;16.00;41.30
30288;DHT22;17103;48.316;11.558;2023-10-19T04:43:54;15.90;41.10
30288;DHT22;17103;48.316;11.558;2023-10-19T04:46:21;15.90;41.10
30288;DHT22;17103;48.316;11.558;2023-10-19T04:48:47;15.80;41.00
30288;DHT22;17103;48.316;11.558;2023-10-19T04:51:14;15.80;41.30
30288;DHT22;17103;48.316;11.558;2023-10-19T04:53:40;15.70;41.10
30288;DHT22;17103;48.316;11.558;2023-10-19T04:56:07;15.60;41.00
30288;DHT22;17103;48.316;11.558;2023-10-19T04:58:35;15.50;41.00
30288;DHT22;17103;48.316;11.558;2023-10-19T05:01:02;15.50;41.20
30288;DHT22;17103;48.316;11.558;2023-10-19T05:03:29;15.40;41.10
30288;DHT22;17103;48.316;11.558;2023-10-19T05:05:55;15.30;41.20
30288;DHT22;17103;48.316;11.558;2023-10-19T05:08:22;15.30;41.70
30288;DHT22;17103;48.316;11.558;2023-10-19T05:10:53;15.20;41.00
30288;DHT22;17103;48.316;11.558;2023-10-19T05:13:24;15.10;41.10
30288;DHT22;17103;48.316;11.558;2023-10-19T05:15:51;15.10;41.30
30288;DHT22;17103;48.316;11.558;2023-10-19T05:18:18;15.00;41.30
30288;DHT22;17103;48.316;11.558;2023-10-19T05:20:45;15.00;41.40
30288;DHT22;17103;48.316;11.558;2023-10-19T05:23:11;15.20;41.70
30288;DHT22;17103;48.316;11.558;2023-10-19T05:25:38;14.90;41.60
30288;DHT22;17103;48.316;11.558;2023-10-19T05:28:04;14.90;41.70
30288;DHT22;17103;48.316;11.558;2023-10-19T05:30:30;14.90;41.70
30288;DHT22;17103;48.316;11.558;2023-10-19T05:32:57;14.80;41.70
30288;DHT22;17103;48.316;11.558;2023-10-19T05:35:25;14.80;41.80
30288;DHT22;17103;48.316;11.558;2023-10-19T05:37:52;14.80;41.90
30288;DHT22;17103;48.316;11.558;2023-10-19T05:40:18;14.80;41.90
30288;DHT22;17103;48.316;11.558;2023-10-19T05:42:45;14.80;41.90
30288;DHT22;17103;48.316;11.558;2023-10-19T05:45:13;14.70;41.90
30288;DHT22;17103;48.316;11.558;2023-10-19T05:47:38;14.70;41.90
30288;DHT22;17103;48.316;11.558;2023-10-19T05:50:04;15.30;42.50
30288;DHT22;17103;48.316;11.558;2023-10-19T05:52:30;14.70;42.10
30288;DHT22;17103;48.316;11.558;2023-10-19T05:54:57;14.70;42.20
30288;DHT22;17103;48.316;11.558;2023-10-19T05:57:22;14.60;42.20
30288;DHT22;17103;48.316;11.558;2023-10-19T05:59:50;14.60;42.30
30288;DHT22;17103;48.316;11.558;2023-10-19T06:02:16;14.60;42.30
30288;DHT22;17103;48.316;11.558;2023-10-19T06:04:43;14.60;42.40
30288;DHT22;17103;48.316;11.558;2023-10-19T06:07:08;14.60;42.40
30288;DHT22;17103;48.316;11.558;2023-10-19T06:09:35;14.60;42.50
30288;DHT22;17103;48.316;11.558;2023-10-19T06:12:01;14.60;42.50
30288;DHT22;17103;48.316;11.558;2023-10-19T06:14:26;14.60;42.60
30288;DHT22;17103;48.316;11.558;2023-10-19T06:16:53;14.60;42.70
30288;DHT22;17103;48.316;11.558;2023-10-19T06:19:19;14.50;42.80
30288;DHT22;17103;48.316;11.558;2023-10-19T06:21:44;14.50;42.60
30288;DHT22;17103;48.316;11.558;2023-10-19T06:24:10;14.50;42.60
30288;DHT22;17103;48.316;11.558;2023-10-19T06:26:41;14.50;42.60
30288;DHT22;17103;48.316;11.558;2023-10-19T06:29:06;14.50;42.60
30288;DHT22;17103;48.316;11.558;2023-10-19T06:31:33;14.50;42.70
30288;DHT22;17103;48.316;11.558;2023-10-19T06:33:59;14.50;42.80
30288;DHT22;17103;48.316;11.558;2023-10-19T06:36:25;14.50;42.80
30288;DHT22;17103;48.316;11.558;2023-10-19T06:38:51;14.50;42.80
30288;DHT22;17103;48.316;11.558;2023-10-19T06:41:16;14.50;42.90
30288;DHT22;17103;48.316;11.558;2023-10-19T06:43:43;14.50;42.90
30288;DHT22;17103;48.316;11.558;2023-10-19T06:46:09;14.50;42.90
30288;DHT22;17103;48.316;11.558;2023-10-19T06:48:38;14.50;42.90
30288;DHT22;17103;48.316;11.558;2023-10-19T06:51:03;14.50;43.00
30288;DHT22;17103;48.316;11.558;2023-10-19T06:53:31;14.50;43.00
30288;DHT22;17103;48.316;11.558;2023-10-19T06:55:58;14.50;43.10
30288;DHT22;17103;48.316;11.558;2023-10-19T06:58:24;14.50;43.20
30288;DHT22;17103;48.316;11.558;2023-10-19T07:00:52;14.40;43.10
30288;DHT22;17103;48.316;11.558;2023-10-19T07:03:30;14.50;43.20
30288;DHT22;17103;48.316;11.558;2023-10-19T07:05:56;14.50;43.20
30288;DHT22;17103;48.316;11.558;2023-10-19T07:08:24;14.50;43.60
30288;DHT22;17103;48.316;11.558;2023-10-19T07:10:52;14.50;43.50
30288;DHT22;17103;48.316;11.558;2023-10-19T07:13:20;14.50;44.10
30288;DHT22;17103;48.316;11.558;2023-10-19T07:15:47;14.50;43.40
30288;DHT22;17103;48.316;11.558;2023-10-19T07:18:14;14.60;43.60
30288;DHT22;17103;48.316;11.558;2023-10-19T07:20:40;14.60;43.70
30288;DHT22;17103;48.316;11.558;2023-10-19T07:23:09;14.60;43.70
30288;DHT22;17103;48.316;11.558;2023-10-19T07:25:47;14.60;43.70
30288;DHT22;17103;48.316;11.558;2023-10-19T07:28:25;14.60;43.80
30288;DHT22;17103;48.316;11.558;2023-10-19T07:30:52;14.70;43.90
30288;DHT22;17103;48.316;11.558;2023-10-19T07:33:18;14.70;43.90
30288;DHT22;17103;48.316;11.558;2023-10-19T07:35:45;14.70;43.80
30288;DHT22;17103;48.316;11.558;2023-10-19T07:38:15;14.70;43.90
30288;DHT22;17103;48.316;11.558;2023-10-19T07:40:42;14.80;44.00
30288;DHT22;17103;48.316;11.558;2023-10-19T07:43:08;14.80;44.00
30288;DHT22;17103;48.316;11.558;2023-10-19T07:45:35;14.80;43.90
30288;DHT22;17103;48.316;11.558;2023-10-19T07:48:02;14.90;44.10
30288;DHT22;17103;48.316;11.558;2023-10-19T07:50:33;14.90;44.10
30288;DHT22;17103;48.316;11.558;2023-10-19T07:53:01;15.00;44.20
30288;DHT22;17103;48.316;11.558;2023-10-19T07:55:27;15.00;44.20
30288;DHT22;17103;48.316;11.558;2023-10-19T07:57:53;15.00;44.10
30288;DHT22;17103;48.316;11.558;2023-10-19T08:00:20;15.10;44.30
30288;DHT22;17103;48.316;11.558;2023-10-19T08:02:47;15.10;44.40
30288;DHT22;17103;48.316;11.558;2023-10-19T08:05:13;15.10;44.40
30288;DHT22;17103;48.316;11.558;2023-10-19T08:07:39;15.20;44.60
30288;DHT22;17103;48.316;11.558;2023-10-19T08:10:08;15.20;44.60
30288;DHT22;17103;48.316;11.558;2023-10-19T08:12:37;15.30;45.20
30288;DHT22;17103;48.316;11.558;2023-10-19T08:15:02;15.30;44.70
30288;DHT22;17103;48.316;11.558;2023-10-19T08:17:29;15.40;44.70
30288;DHT22;17103;48.316;11.558;2023-10-19T08:19:55;15.40;44.70
30288;DHT22;17103;48.316;11.558;2023-10-19T08:22:21;16.10;45.30
30288;DHT22;17103;48.316;11.558;2023-10-19T08:24:46;15.50;44.90
30288;DHT22;17103;48.316;11.558;2023-10-19T08:27:12;15.60;44.90
30288;DHT22;17103;48.316;11.558;2023-10-19T08:29:38;15.70;44.90
30288;DHT22;17103;48.316;11.558;2023-10-19T08:32:04;15.70;44.90
30288;DHT22;17103;48.316;11.558;2023-10-19T08:34:33;15.80;45.00
30288;DHT22;17103;48.316;11.558;2023-10-19T08:37:03;15.80;44.90
30288;DHT22;17103;48.316;11.558;2023-10-19T08:39:30;15.80;44.80
30288;DHT22;17103;48.316;11.558;2023-10-19T08:42:02;15.90;45.00
30288;DHT22;17103;48.316;11.558;2023-10-19T08:44:29;16.00;45.00
30288;DHT22;17103;48.316;11.558;2023-10-19T08:46:56;16.00;45.50
30288;DHT22;17103;48.316;11.558;2023-10-19T08:49:25;16.10;45.00
30288;DHT22;17103;48.316;11.558;2023-10-19T08:51:53;16.20;45.20
30288;DHT22;17103;48.316;11.558;2023-10-19T08:54:20;16.20;45.20
30288;DHT22;17103;48.316;11.558;2023-10-19T08:56:45;16.20;45.20
30288;DHT22;17103;48.316;11.558;2023-10-19T08:59:12;16.30;45.30
30288;DHT22;17103;48.316;11.558;2023-10-19T09:01:38;16.30;45.10
30288;DHT22;17103;48.316;11.558;2023-10-19T09:04:04;16.40;45.20
30288;DHT22;17103;48.316;11.558;2023-10-19T09:06:36;16.40;45.20
30288;DHT22;17103;48.316;11.558;2023-10-19T09:09:15;16.40;45.20
30288;DHT22;17103;48.316;11.558;2023-10-19T09:11:50;16.50;45.30
30288;DHT22;17103;48.316;11.558;2023-10-19T09:14:31;16.60;45.80
30288;DHT22;17103;48.316;11.558;2023-10-19T09:17:01;16.60;45.30
30288;DHT22;17103;48.316;11.558;2023-10-19T09:19:38;16.70;45.30
30288;DHT22;17103;48.316;11.558;2023-10-19T09:22:05;16.70;45.40
30288;DHT22;17103;48.316;11.558;2023-10-19T09:24:37;16.70;45.40
30288;DHT22;17103;48.316;11.558;2023-10-19T09:27:04;16.80;45.50
30288;DHT22;17103;48.316;11.558;2023-10-19T09:29:29;16.80;45.40
30288;DHT22;17103;48.316;11.558;2023-10-19T09:31:58;16.80;45.30
30288;DHT22;17103;48.316;11.558;2023-10-19T09:34:26;16.90;45.60
30288;DHT22;17103;48.316;11.558;2023-10-19T09:36:58;16.90;45.80
30288;DHT22;17103;48.316;11.558;2023-10-19T09:39:29;16.80;45.80
30288;DHT22;17103;48.316;11.558;2023-10-19T09:42:07;17.00;46.00
30288;DHT22;17103;48.316;11.558;2023-10-19T09:44:41;17.00;45.90
30288;DHT22;17103;48.316;11.558;2023-10-19T09:47:10;17.00;45.80
30288;DHT22;17103;48.316;11.558;2023-10-19T09:49:39;17.10;45.80
30288;DHT22;17103;48.316;11.558;2023-10-19T09:52:07;17.10;45.80
30288;DHT22;17103;48.316;11.558;2023-10-19T09:54:39;17.10;45.80
30288;DHT22;17103;48.316;11.558;2023-10-19T09:57:10;17.20;45.80
30288;DHT22;17103;48.316;11.558;2023-10-19T09:59:44;17.20;45.80
30288;DHT22;17103;48.316;11.558;2023-10-19T10:02:10;17.20;45.70
30288;DHT22;17103;48.316;11.558;2023-10-19T10:04:38;17.30;45.80
30288;DHT22;17103;48.316;11.558;2023-10-19T10:07:05;17.30;45.80
30288;DHT22;17103;48.316;11.558;2023-10-19T10:09:32;17.40;46.00
30288;DHT22;17103;48.316;11.558;2023-10-19T10:12:15;17.40;46.40
30288;DHT22;17103;48.316;11.558;2023-10-19T10:14:41;17.50;46.30
30288;DHT22;17103;48.316;11.558;2023-10-19T10:17:18;17.50;46.30
30288;DHT22;17103;48.316;11.558;2023-10-19T10:19:47;17.60;46.90
30288;DHT22;17103;48.316;11.558;2023-10-19T10:22:13;17.60;46.20
30288;DHT22;17103;48.316;11.558;2023-10-19T10:24:46;17.70;46.20
30288;DHT22;17103;48.316;11.558;2023-10-19T10:27:12;17.80;46.50
30288;DHT22;17103;48.316;11.558;2023-10-19T10:29:56;17.80;46.60
30288;DHT22;17103;48.316;11.558;2023-10-19T10:35:08;18.00;46.40
30288;DHT22;17103;48.316;11.558;2023-10-19T10:37:38;18.10;46.30
30288;DHT22;17103;48.316;11.558;2023-10-19T10:40:05;18.10;46.30
30288;DHT22;17103;48.316;11.558;2023-10-19T10:42:31;18.20;46.40
30288;DHT22;17103;48.316;11.558;2023-10-19T10:44:57;18.30;46.50
30288;DHT22;17103;48.316;11.558;2023-10-19T10:47:23;18.40;46.70
30288;DHT22;17103;48.316;11.558;2023-10-19T10:49:55;19.30;46.90
30288;DHT22;17103;48.316;11.558;2023-10-19T10:52:28;18.50;46.30
30288;DHT22;17103;48.316;11.558;2023-10-19T10:54:57;18.60;46.30
30288;DHT22;17103;48.316;11.558;2023-10-19T10:57:22;18.60;46.20
30288;DHT22;17103;48.316;11.558;2023-10-19T11:00:05;18.70;46.20
30288;DHT22;17103;48.316;11.558;2023-10-19T11:02:34;18.80;46.30
30288;DHT22;17103;48.316;11.558;2023-10-19T11:04:59;18.80;46.10
30288;DHT22;17103;48.316;11.558;2023-10-19T11:07:25;18.90;46.20
30288;DHT22;17103;48.316;11.558;2023-10-19T11:09:51;18.90;46.30
30288;DHT22;17103;48.316;11.558;2023-10-19T11:12:17;19.00;46.10
30288;DHT22;17103;48.316;11.558;2023-10-19T11:14:56;19.00;46.10
30288;DHT22;17103;48.316;11.558;2023-10-19T11:17:23;19.00;46.20
30288;DHT22;17103;48.316;11.558;2023-10-19T11:19:58;19.10;46.30
30288;DHT22;17103;48.316;11.558;2023-10-19T11:22:27;19.10;46.40
30288;DHT22;17103;48.316;11.558;2023-10-19T11:24:53;19.10;46.50
30288;DHT22;17103;48.316;11.558;2023-10-19T11:27:26;19.20;46.60
30288;DHT22;17103;48.316;11.558;2023-10-19T11:29:56;19.20;46.70
30288;DHT22;17103;48.316;11.558;2023-10-19T11:32:22;19.20;46.60
30288;DHT22;17103;48.316;11.558;2023-10-19T11:34:51;18.50;46.00
30288;DHT22;17103;48.316;11.558;2023-10-19T11:37:17;19.30;46.50
30288;DHT22;17103;48.316;11.558;2023-10-19T11:39:44;19.30;46.50
30288;DHT22;17103;48.316;11.558;2023-10-19T11:42:11;19.30;46.40
30288;DHT22;17103;48.316;11.558;2023-10-19T11:44:37;19.40;46.50
30288;DHT22;17103;48.316;11.558;2023-10-19T11:47:03;19.40;46.50
30288;DHT22;17103;48.316;11.558;2023-10-19T11:49:29;19.40;46.60
30288;DHT22;17103;48.316;11.558;2023-10-19T11:51:54;19.40;46.60
30288;DHT22;17103;48.316;11.558;2023-10-19T11:54:20;19.40;46.50
30288;DHT22;17103;48.316;11.558;2023-10-19T11:56:47;19.40;46.50
30288;DHT22;17103;48.316;11.558;2023-10-19T11:59:14;19.40;46.60
30288;DHT22;17103;48.316;11.558;2023-10-19T12:01:40;19.50;46.70
30288;DHT22;17103;48.316;11.558;2023-10-19T12:04:07;19.50;46.80
30288;DHT22;17103;48.316;11.558;2023-10-19T12:06:34;19.50;46.70
30288;DHT22;17103;48.316;11.558;2023-10-19T12:09:00;19.50;46.80
30288;DHT22;17103;48.316;11.558;2023-10-19T12:11:40;19.60;46.80
30288;DHT22;17103;48.316;11.558;2023-10-19T12:14:05;19.60;46.90
30288;DHT22;17103;48.316;11.558;2023-10-19T12:16:34;19.60;46.90
30288;DHT22;17103;48.316;11.558;2023-10-19T12:19:01;19.70;47.00
30288;DHT22;17103;48.316;11.558;2023-10-19T12:21:27;19.70;46.90
30288;DHT22;17103;48.316;11.558;2023-10-19T12:23:53;19.80;47.00
30288;DHT22;17103;48.316;11.558;2023-10-19T12:26:20;19.80;47.10
30288;DHT22;17103;48.316;11.558;2023-10-19T12:28:46;19.90;47.10
30288;DHT22;17103;48.316;11.558;2023-10-19T12:31:13;19.90;47.10
30288;DHT22;17103;48.316;11.558;2023-10-19T12:33:40;20.20;47.20
30288;DHT22;17103;48.316;11.558;2023-10-19T12:36:07;20.00;47.10
30288;DHT22;17103;48.316;11.558;2023-10-19T12:38:51;20.10;47.10
30288;DHT22;17103;48.316;11.558;2023-10-19T12:41:21;20.20;47.20
30288;DHT22;17103;48.316;11.558;2023-10-19T12:43:47;20.30;47.10
30288;DHT22;17103;48.316;11.558;2023-10-19T12:46:13;20.30;47.10
30288;DHT22;17103;48.316;11.558;2023-10-19T12:48:42;20.40;47.00
30288;DHT22;17103;48.316;11.558;2023-10-19T12:51:08;20.50;47.00
30288;DHT22;17103;48.316;11.558;2023-10-19T12:53:38;20.50;47.40
30288;DHT22;17103;48.316;11.558;2023-10-19T12:56:06;20.60;47.00
30288;DHT22;17103;48.316;11.558;2023-10-19T12:58:33;20.70;47.00
30288;DHT22;17103;48.316;11.558;2023-10-19T13:01:00;20.70;47.00
30288;DHT22;17103;48.316;11.558;2023-10-19T13:03:30;20.80;47.00
30288;DHT22;17103;48.316;11.558;2023-10-19T13:05:58;20.90;47.10
30288;DHT22;17103;48.316;11.558;2023-10-19T13:08:30;20.90;46.80
30288;DHT22;17103;48.316;11.558;2023-10-19T13:10:56;21.00;47.00
30288;DHT22;17103;48.316;11.558;2023-10-19T13:13:21;21.10;47.00
30288;DHT22;17103;48.316;11.558;2023-10-19T13:15:49;21.10;46.90
30288;DHT22;17103;48.316;11.558;2023-10-19T13:18:17;21.20;46.80
30288;DHT22;17103;48.316;11.558;2023-10-19T13:20:47;21.20;46.80
30288;DHT22;17103;48.316;11.558;2023-10-19T13:23:14;21.30;46.90
30288;DHT22;17103;48.316;11.558;2023-10-19T13:25:45;21.30;46.80
30288;DHT22;17103;48.316;11.558;2023-10-19T13:28:23;21.30;46.70
30288;DHT22;17103;48.316;11.558;2023-10-19T13:30:49;21.40;46.70
30288;DHT22;17103;48.316;11.558;2023-10-19T13:33:15;21.40;46.80
30288;DHT22;17103;48.316;11.558;2023-10-19T13:35:42;21.40;46.70
30288;DHT22;17103;48.316;11.558;2023-10-19T13:38:08;21.40;46.70
30288;DHT22;17103;48.316;11.558;2023-10-19T13:40:37;21.40;46.60
30288;DHT22;17103;48.316;11.558;2023-10-19T13:43:04;21.40;46.60
30288;DHT22;17103;48.316;11.558;2023-10-19T13:45:35;21.40;46.50
30288;DHT22;17103;48.316;11.558;2023-10-19T13:48:02;21.40;46.50
30288;DHT22;17103;48.316;11.558;2023-10-19T13:50:28;21.40;46.40
30288;DHT22;17103;48.316;11.558;2023-10-19T13:52:55;21.40;47.00
30288;DHT22;17103;48.316;11.558;2023-10-19T13:55:22;21.50;46.40
30288;DHT22;17103;48.316;11.558;2023-10-19T13:57:50;21.40;46.20
30288;DHT22;17103;48.316;11.558;2023-10-19T14:00:16;21.40;46.20
30288;DHT22;17103;48.316;11.558;2023-10-19T14:02:49;21.40;46.20
30288;DHT22;17103;48.316;11.558;2023-10-19T14:05:16;21.40;46.20
30288;DHT22;17103;48.316;11.558;2023-10-19T14:07:42;21.30;46.00
30288;DHT22;17103;48.316;11.558;2023-10-19T14:10:09;21.30;46.00
30288;DHT22;17103;48.316;11.558;2023-10-19T14:12:38;21.30;46.10
30288;DHT22;17103;48.316;11.558;2023-10-19T14:15:08;21.30;46.40
30288;DHT22;17103;48.316;11.558;2023-10-19T14:17:34;21.20;46.30
30288;DHT22;17103;48.316;11.558;2023-10-19T14:19:59;21.20;46.30
30288;DHT22;17103;48.316;11.558;2023-10-19T14:22:25;21.10;46.20
30288;DHT22;17103;48.316;11.558;2023-10-19T14:24:51;21.10;46.30
30288;DHT22;17103;48.316;11.558;2023-10-19T14:27:17;21.10;46.40
30288;DHT22;17103;48.316;11.558;2023-10-19T14:29:42;21.10;46.40
30288;DHT22;17103;48.316;11.558;2023-10-19T14:32:09;21.00;46.40
30288;DHT22;17103;48.316;11.558;2023-10-19T14:34:35;21.00;46.40
30288;DHT22;17103;48.316;11.558;2023-10-19T14:37:01;21.00;46.40
30288;DHT22;17103;48.316;11.558;2023-10-19T14:39:26;21.00;46.40
30288;DHT22;17103;48.316;11.558;2023-10-19T14:41:52;21.00;46.40
30288;DHT22;17103;48.316;11.558;2023-10-19T14:44:17;20.90;46.40
30288;DHT22;17103;48.316;11.558;2023-10-19T14:46:43;20.90;46.40
30288;DHT22;17103;48.316;11.558;2023-10-19T14:49:08;20.90;46.40
30288;DHT22;17103;48.316;11.558;2023-10-19T14:51:35;20.80;46.50
30288;DHT22;17103;48.316;11.558;2023-10-19T14:54:01;20.80;46.50
30288;DHT22;17103;48.316;11.558;2023-10-19T14:56:26;20.80;46.50
30288;DHT22;17103;48.316;11.558;2023-10-19T14:58:52;20.80;46.60
30288;DHT22;17103;48.316;11.558;2023-10-19T15:01:23;20.80;46.90
30288;DHT22;17103;48.316;11.558;2023-10-19T15:03:51;20.80;47.00
30288;DHT22;17103;48.316;11.558;2023-10-19T15:06:16;20.80;47.10
30288;DHT22;17103;48.316;11.558;2023-10-19T15:08:43;20.90;47.00
30288;DHT22;17103;48.316;11.558;2023-10-19T15:11:09;20.90;47.00
30288;DHT22;17103;48.316;11.558;2023-10-19T15:13:35;20.90;46.90
30288;DHT22;17103;48.316;11.558;2023-10-19T15:16:08;20.90;47.00
30288;DHT22;17103;48.316;11.558;2023-10-19T15:18:34;20.90;46.80
30288;DHT22;17103;48.316;11.558;2023-10-19T15:21:11;20.90;46.80
30288;DHT22;17103;48.316;11.558;2023-10-19T15:23:40;20.90;46.90
30288;DHT22;17103;48.316;11.558;2023-10-19T15:26:15;20.80;46.80
30288;DHT22;17103;48.316;11.558;2023-10-19T15:28:42;20.80;46.70